Bayfield, CO

9:43 AM MST on February 28, 2015 (GMT -0700)
Timberdale Ranch | Change Station
CLOSE
Current Station
Personal Weather Station
Location: Bayfield, CO
Elevation: 7690 ft
Nearby Weather Stations

Elev 7690 ft 37.30 °N, 107.65 °W | Updated 8 minutes ago

Snow
Snow
27.0 °F
Feels Like 27 °F
N
0.0
Wind Variable Wind from South
Gusts 0.0 mph

Today
High -- | Low -- °F
--% Chance of Precip.
Yesterday
High -- | Low -- °F
Precip. -- in
6:43 AM 6:03 PM
Waxing Gibbous, 78% visible
Pressure 29.83 in
Visibility 1.0 miles
Clouds Mostly Cloudy 1600 ft
Overcast 3000 ft
Windchill 27 °F
Dew Point 23 °F
Humidity 84%
Rainfall 0.00 in
Snow Depth Not available.
UV 1 out of 12
Pollen 1.00 out of 12
Air Quality Not available.
Flu Activity Not available.
SPECI KDRO 281631Z AUTO 10003KT 1SM -SN BR BKN016 OVC030 M03/M04 A2983 RMK AO2 SNB00 P0001 T10331039

More Conditions Fewer Conditions

Pressure 29.83 in
Visibility 1.0 miles
Clouds Mostly Cloudy 1600 ft
Overcast 3000 ft
Windchill 27 °F
Dew Point 23 °F
Humidity 84%
Rainfall 0.00 in
Snow Depth Not available.
UV 1 out of 12
Pollen 1.00 out of 12
Air Quality Not available.
Flu Activity Not available.
SPECI KDRO 281631Z AUTO 10003KT 1SM -SN BR BKN016 OVC030 M03/M04 A2983 RMK AO2 SNB00 P0001 T10331039

More Conditions Fewer Conditions

10-Day Weather Forecast

Almanac

Astronomy

Feb. 28, 2015 Rise Set
Actual Time
Civil Twilight
Nautical Twilight
Astronomical Twilight
Moon
Length of Visible Light
Length of Day
Tomorrow will be .
, % of the Moon is Illuminated

Today's Extremes

State Highs State Lows

Community

WunderPhotos

Upload Photos

1,801,081 photos uploaded!

WunderBlogs® & News

Nearby

Air Quality

  Air Quality AQ Index Pollutant
Not available.

Snow Depth

Station Depth Elevation

Earthquake Activity

City Distance Mag. Time & Date
Minimum magnitude displayed is 2.5.

Coastal Water Temperatures

Place Temperature

Nearby Weather Stations

Winter Storm Warning
Statement as of 4:46 AM MST on February 28, 2015

... Winter Storm Warning remains in effect until 8 PM MST Monday...

* locations include the cities of... Durango... Bayfield... Ignacio.

* Timing... snow will continue to accumulate through Monday
evening.

* Snow accumulation... 1 to 2 feet through Monday.

* Snow levels... may see rain or a rain snow mix in the
afternoons below 7000 feet.

* Winds... southwest 10 to 20 mph Saturday.

* Visibility... restricted at times in heavy snow.

* Impacts... travel is expected to become difficult this weekend
through Tuesday.

Precautionary/preparedness actions...

A Winter Storm Warning means significant amounts of snow are
expected or occurring. Strong winds and blowing snow are also
possible. This will make travel very hazardous or impossible.